Time;durP1;ratioP1;P1;durP2;ratioP2;P2;SDS_P1;SDS_P2;PMS_P1;PMS_P2;Temp;Humidity;BMP_temperature;BMP_pressure;BME280_temperature;BME280_humidity;BME280_pressure;Samples;Min_cycle;Max_cycle;Signal;HPM_P1;HPM_P2
2021/06/26 00:00:50;;;;;;;;;;;;;;;20.23;72.17;101601.72;5118749;28;837;-62
2021/06/26 00:03:16;;;;;;;;;;;;;;;20.22;70.84;101606.25;5121708;27;1724;-62
2021/06/26 00:05:41;;;;;;;;;;;;;;;20.22;71.21;101605.41;5139034;27;866;-62
2021/06/26 00:08:06;;;;;;;;;;;;;;;20.20;70.67;101602.84;5138949;27;1079;-62
2021/06/26 00:10:31;;;;;;;;;;;;;;;20.20;71.32;101605.56;5139369;27;1115;-62
2021/06/26 00:12:56;;;;;;;;;;;;;;;20.20;72.12;101602.00;5120610;27;1813;-61
2021/06/26 00:15:21;;;;;;;;;;;;;;;20.19;71.60;101609.25;5118039;28;1909;-61
2021/06/26 00:17:46;;;;;;;;;;;;;;;20.19;70.46;101617.38;5118011;28;1133;-60
2021/06/26 00:20:11;;;;;;;;;;;;;;;20.19;71.40;101617.38;5118694;28;1768;-61
2021/06/26 00:22:36;;;;;;;;;;;;;;;20.20;70.27;101610.09;5133461;27;1785;-60
2021/06/26 00:25:01;;;;;;;;;;;;;;;20.18;71.56;101615.66;5138559;27;873;-60
2021/06/26 00:27:28;;;;;;;;;;;;;;;20.18;71.61;101609.41;5138894;27;859;-60
2021/06/26 00:29:53;;;;;;;;;;;;;;;20.16;70.31;101609.53;5139040;27;871;-62
2021/06/26 00:32:18;;;;;;;;;;;;;;;20.17;71.58;101618.50;5137575;27;1764;-62
2021/06/26 00:34:43;;;;;;;;;;;;;;;20.16;70.90;101614.94;5139152;27;1945;-63
2021/06/26 00:37:08;;;;;;;;;;;;;;;20.15;71.28;101615.94;5139048;27;830;-63
2021/06/26 00:39:33;;;;;;;;;;;;;;;20.15;71.73;101610.53;5138823;27;1648;-63
2021/06/26 00:41:58;;;;;;;;;;;;;;;20.14;70.82;101611.53;5126621;27;1722;-64
2021/06/26 00:44:23;;;;;;;;;;;;;;;20.13;71.53;101607.09;5118275;28;950;-63
2021/06/26 00:46:48;;;;;;;;;;;;;;;20.12;71.68;101605.41;5099788;28;1705;-63
2021/06/26 00:49:13;;;;;;;;;;;;;;;20.13;70.83;101607.09;5120081;27;1822;-61
2021/06/26 00:51:39;;;;;;;;;;;;;;;20.11;70.87;101607.25;5138486;27;1024;-62
2021/06/26 00:54:04;;;;;;;;;;;;;;;20.12;70.15;101608.09;5138401;27;885;-62
2021/06/26 00:56:29;;;;;;;;;;;;;;;20.11;70.62;101599.13;5138041;27;1898;-62
2021/06/26 00:58:54;;;;;;;;;;;;;;;20.11;70.28;101593.72;5138635;27;1656;-62
2021/06/26 01:01:19;;;;;;;;;;;;;;;20.11;70.09;101598.28;5137080;27;1997;-62
2021/06/26 01:03:45;;;;;;;;;;;;;;;20.10;70.66;101605.53;5138461;27;1028;-63
2021/06/26 01:06:11;;;;;;;;;;;;;;;20.10;69.98;101601.97;5137915;27;845;-61
2021/06/26 01:08:36;;;;;;;;;;;;;;;20.09;69.90;101601.13;5137919;27;869;-62
2021/06/26 01:11:01;;;;;;;;;;;;;;;20.09;69.84;101594.84;5138178;27;1006;-62
2021/06/26 01:13:28;;;;;;;;;;;;;;;20.08;70.70;101607.53;5121453;27;1734;-63
2021/06/26 01:15:53;;;;;;;;;;;;;;;20.09;71.27;101600.25;5137722;27;1901;-62
2021/06/26 01:18:18;;;;;;;;;;;;;;;20.08;70.14;101604.81;5137419;27;1618;-62
2021/06/26 01:20:43;;;;;;;;;;;;;;;20.08;70.14;101601.25;5137909;27;1008;-62
2021/06/26 01:23:12;;;;;;;;;;;;;;;20.07;70.30;101603.09;5137834;27;1804;-63
2021/06/26 01:25:37;;;;;;;;;;;;;;;20.07;71.19;101607.66;5117117;28;873;-60
2021/06/26 01:28:02;;;;;;;;;;;;;;;20.06;70.23;101611.41;5117265;28;1530;-61
2021/06/26 01:30:27;;;;;;;;;;;;;;;20.04;71.26;101607.97;5099035;28;2409;-61
2021/06/26 01:32:52;;;;;;;;;;;;;;;20.05;70.94;101615.09;5117236;28;1008;-61
2021/06/26 01:35:17;;;;;;;;;;;;;;;20.04;69.35;101618.81;5119123;27;1961;-61
2021/06/26 01:37:42;;;;;;;;;;;;;;;20.04;69.94;101621.50;5137836;27;1563;-60
2021/06/26 01:40:07;;;;;;;;;;;;;;;20.04;70.63;101621.50;5137092;27;864;-60
2021/06/26 01:42:33;;;;;;;;;;;;;;;20.03;70.25;101617.09;5137500;27;984;-60
2021/06/26 01:44:58;;;;;;;;;;;;;;;20.03;70.06;101622.50;5137414;27;913;-60
2021/06/26 01:47:23;;;;;;;;;;;;;;;20.03;69.63;101617.09;5129073;27;1865;-61
2021/06/26 01:49:48;;;;;;;;;;;;;;;20.01;70.21;101619.09;5116613;28;873;-61
2021/06/26 01:52:13;;;;;;;;;;;;;;;20.00;69.43;101618.22;5116619;28;890;-61
2021/06/26 01:54:38;;;;;;;;;;;;;;;20.01;70.20;101624.50;5116376;28;1961;-60
2021/06/26 01:57:03;;;;;;;;;;;;;;;19.99;70.03;101619.22;5124871;27;1963;-62
2021/06/26 01:59:28;;;;;;;;;;;;;;;20.00;69.77;101625.50;5136117;27;913;-61
2021/06/26 02:01:53;;;;;;;;;;;;;;;20.00;70.57;101628.19;5136557;27;845;-62
2021/06/26 02:04:18;;;;;;;;;;;;;;;19.98;70.56;101638.28;5137090;27;1031;-61
2021/06/26 02:06:44;;;;;;;;;;;;;;;19.98;69.95;101633.75;5136979;27;922;-61
2021/06/26 02:09:09;;;;;;;;;;;;;;;19.97;69.95;101629.31;5136328;27;1831;-61
2021/06/26 02:11:34;;;;;;;;;;;;;;;19.97;69.93;101639.28;5136873;27;850;-61
2021/06/26 02:13:59;;;;;;;;;;;;;;;19.97;70.14;101633.88;5136828;27;842;-61
2021/06/26 02:16:24;;;;;;;;;;;;;;;19.97;69.96;101644.69;5136995;27;1913;-61
2021/06/26 02:18:49;;;;;;;;;;;;;;;19.97;70.01;101633.88;5136247;27;1064;-61
2021/06/26 02:21:15;;;;;;;;;;;;;;;19.96;70.46;101634.88;5124128;27;1733;-62
2021/06/26 02:23:40;;;;;;;;;;;;;;;19.95;69.92;101635.88;5116218;28;1895;-63
2021/06/26 02:26:05;;;;;;;;;;;;;;;19.95;69.72;101635.88;5115953;28;851;-62
2021/06/26 02:28:30;;;;;;;;;;;;;;;19.94;70.24;101636.84;5116185;28;860;-62
2021/06/26 02:30:55;;;;;;;;;;;;;;;19.95;69.86;101638.56;5116354;28;1636;-62
2021/06/26 02:33:20;;;;;;;;;;;;;;;19.93;69.86;101632.44;5116976;27;1822;-61
2021/06/26 02:35:45;;;;;;;;;;;;;;;19.94;69.66;101634.16;5116307;28;1960;-61
2021/06/26 02:38:10;;;;;;;;;;;;;;;19.93;69.16;101636.00;5116083;28;810;-62
2021/06/26 02:40:35;;;;;;;;;;;;;;;19.93;69.63;101635.16;5128787;27;1739;-61
2021/06/26 02:43:00;;;;;;;;;;;;;;;19.92;69.63;101636.13;5136628;27;976;-62
2021/06/26 02:45:25;;;;;;;;;;;;;;;19.91;69.66;101638.00;5135339;27;1819;-61
2021/06/26 02:47:51;;;;;;;;;;;;;;;19.91;68.17;101635.28;5136504;27;1024;-61
2021/06/26 02:50:16;;;;;;;;;;;;;;;19.91;68.79;101640.69;5136258;27;842;-61
2021/06/26 02:52:41;;;;;;;;;;;;;;;19.91;69.94;101647.97;5136509;27;853;-62
2021/06/26 02:55:06;;;;;;;;;;;;;;;19.90;69.06;101639.00;5135975;27;1909;-63
2021/06/26 02:57:31;;;;;;;;;;;;;;;19.89;69.50;101647.25;5119481;27;1846;-63
2021/06/26 02:59:56;;;;;;;;;;;;;;;19.88;69.09;101643.72;5115494;28;1569;-62
2021/06/26 03:02:21;;;;;;;;;;;;;;;19.89;69.45;101650.81;5115517;28;861;-62
2021/06/26 03:04:46;;;;;;;;;;;;;;;19.88;68.09;101654.53;5115798;28;1708;-62
2021/06/26 03:07:11;;;;;;;;;;;;;;;19.88;68.94;101659.09;5115685;28;1012;-62
2021/06/26 03:09:36;;;;;;;;;;;;;;;19.86;68.82;101653.81;5115794;28;1673;-62
2021/06/26 03:12:01;;;;;;;;;;;;;;;19.86;68.61;101648.41;5117912;28;850;-63
2021/06/26 03:14:26;;;;;;;;;;;;;;;19.87;69.13;101660.09;5122645;27;1905;-64
2021/06/26 03:16:51;;;;;;;;;;;;;;;19.86;69.40;101663.78;5139996;27;1028;-63
2021/06/26 03:19:17;;;;;;;;;;;;;;;19.86;69.87;101666.47;5140618;27;845;-63
2021/06/26 03:21:42;;;;;;;;;;;;;;;19.86;68.14;101658.38;5140510;27;1016;-63
2021/06/26 03:24:07;;;;;;;;;;;;;;;19.85;69.20;101656.66;5139963;27;846;-60
2021/06/26 03:26:33;;;;;;;;;;;;;;;19.86;68.52;101663.78;5138320;27;1855;-60
2021/06/26 03:28:58;;;;;;;;;;;;;;;19.85;68.82;101651.25;5140073;27;1836;-60
2021/06/26 03:31:24;;;;;;;;;;;;;;;19.84;68.56;101658.50;5122540;27;1903;-61
2021/06/26 03:33:49;;;;;;;;;;;;;;;19.85;68.28;101653.94;5119345;28;1021;-61
2021/06/26 03:36:15;;;;;;;;;;;;;;;19.83;68.79;101664.91;5120398;27;1960;-61
2021/06/26 03:38:40;;;;;;;;;;;;;;;19.83;69.19;101661.34;5139731;27;845;-61
2021/06/26 03:41:05;;;;;;;;;;;;;;;19.82;68.94;101656.94;5139484;27;925;-61
2021/06/26 03:43:30;;;;;;;;;;;;;;;19.82;68.87;101662.34;5139935;27;916;-61
2021/06/26 03:45:55;;;;;;;;;;;;;;;19.82;68.50;101662.34;5140014;27;847;-61
2021/06/26 03:48:20;;;;;;;;;;;;;;;19.82;69.09;101662.34;5137044;27;1777;-62
2021/06/26 03:50:45;;;;;;;;;;;;;;;19.81;67.89;101657.94;5119002;28;883;-61
2021/06/26 03:53:11;;;;;;;;;;;;;;;19.82;69.21;101656.94;5119216;28;1083;-61
2021/06/26 03:55:36;;;;;;;;;;;;;;;19.80;69.03;101665.19;5118849;28;1964;-62
2021/06/26 03:58:01;;;;;;;;;;;;;;;19.80;68.33;101661.63;5118888;28;908;-62
2021/06/26 04:00:26;;;;;;;;;;;;;;;19.79;68.19;101658.06;5119209;27;1867;-62
2021/06/26 04:02:51;;;;;;;;;;;;;;;19.79;68.32;101663.47;5119163;28;989;-62
2021/06/26 04:05:16;;;;;;;;;;;;;;;19.79;66.34;101663.47;5118754;28;1465;-62
2021/06/26 04:07:41;;;;;;;;;;;;;;;19.79;68.86;101658.06;5118741;28;981;-62
2021/06/26 04:10:06;;;;;;;;;;;;;;;19.79;69.45;101658.06;5119424;27;1827;-63
2021/06/26 04:12:31;;;;;;;;;;;;;;;19.79;67.29;101657.19;5118775;28;892;-62
2021/06/26 04:14:56;;;;;;;;;;;;;;;19.77;68.55;101660.91;5118807;28;1967;-63
2021/06/26 04:17:21;;;;;;;;;;;;;;;19.79;68.47;101662.63;5118659;28;1016;-62
2021/06/26 04:19:47;;;;;;;;;;;;;;;19.78;67.21;101661.75;5116477;27;1889;-63
2021/06/26 04:22:12;;;;;;;;;;;;;;;19.76;67.19;101659.19;5138836;27;1669;-62
2021/06/26 04:24:37;;;;;;;;;;;;;;;19.77;67.91;101660.03;5138390;27;854;-61
2021/06/26 04:27:02;;;;;;;;;;;;;;;19.77;68.27;101663.59;5138940;27;972;-62
2021/06/26 04:29:27;;;;;;;;;;;;;;;19.76;67.99;101661.88;5105572;28;1886;-62
2021/06/26 04:31:52;;;;;;;;;;;;;;;19.76;68.31;101664.59;5118289;28;1750;-62
2021/06/26 04:34:17;;;;;;;;;;;;;;;19.76;68.83;101659.19;5118103;28;849;-63
2021/06/26 04:36:43;;;;;;;;;;;;;;;19.76;67.88;101658.34;5128061;27;1890;-62
2021/06/26 04:39:08;;;;;;;;;;;;;;;19.77;67.79;101651.94;5138697;27;939;-62
2021/06/26 04:41:33;;;;;;;;;;;;;;;19.77;67.37;101655.50;5139032;27;1534;-60
2021/06/26 04:43:58;;;;;;;;;;;;;;;19.76;68.79;101656.47;5138511;27;1199;-60
2021/06/26 04:46:23;;;;;;;;;;;;;;;19.80;68.07;101658.91;5137951;27;1813;-61
2021/06/26 04:48:48;;;;;;;;;;;;;;;19.79;67.29;101655.34;5121174;27;1725;-62
2021/06/26 04:51:13;;;;;;;;;;;;;;;19.80;68.02;101662.47;5117798;28;899;-61
2021/06/26 04:53:38;;;;;;;;;;;;;;;19.80;67.66;101658.91;5117637;28;963;-60
2021/06/26 04:56:03;;;;;;;;;;;;;;;19.81;67.91;101666.03;5099883;28;1897;-61
2021/06/26 04:58:28;;;;;;;;;;;;;;;19.81;68.59;101655.22;5123037;27;1838;-62
2021/06/26 05:00:57;;;;;;;;;;;;;;;19.81;68.32;101650.66;5128711;27;1698;-60
2021/06/26 05:03:22;;;;;;;;;;;;;;;19.82;68.21;101663.19;5132756;27;1659;-59
2021/06/26 05:05:47;;;;;;;;;;;;;;;19.82;68.90;101660.50;5129711;27;2456;-59
2021/06/26 05:08:12;;;;;;;;;;;;;;;19.83;68.77;101655.94;5130300;27;1862;-60
2021/06/26 05:10:37;;;;;;;;;;;;;;;19.83;67.66;101664.91;5133251;27;1725;-61
2021/06/26 05:13:02;;;;;;;;;;;;;;;19.85;68.09;101667.47;5120344;27;1612;-59
2021/06/26 05:15:27;;;;;;;;;;;;;;;19.82;68.62;101663.19;5128975;27;1914;-60
2021/06/26 05:17:52;;;;;;;;;;;;;;;19.86;68.95;101661.06;5131046;27;1754;-61
2021/06/26 05:20:19;;;;;;;;;;;;;;;19.86;69.26;101647.53;5123036;27;2590;-62
2021/06/26 05:22:44;;;;;;;;;;;;;;;19.87;67.77;101651.97;5102230;27;1971;-60
2021/06/26 05:25:09;;;;;;;;;;;;;;;19.89;67.90;101649.94;5128612;27;1548;-61
2021/06/26 05:27:34;;;;;;;;;;;;;;;19.90;67.47;101647.09;5126535;27;1538;-60
2021/06/26 05:29:59;;;;;;;;;;;;;;;19.91;67.42;101647.97;5131597;27;1920;-60
2021/06/26 05:32:24;;;;;;;;;;;;;;;19.93;67.08;101648.69;5122426;27;1911;-60
2021/06/26 05:34:50;;;;;;;;;;;;;;;19.97;66.67;101642.00;5120588;27;2042;-60
2021/06/26 05:37:15;;;;;;;;;;;;;;;19.99;66.10;101648.13;5118037;27;1653;-60
2021/06/26 05:39:40;;;;;;;;;;;;;;;20.00;66.03;101650.69;5118990;27;1817;-60
2021/06/26 05:42:05;;;;;;;;;;;;;;;20.00;66.73;101645.28;5122746;27;1710;-60
2021/06/26 05:44:30;;;;;;;;;;;;;;;20.01;66.26;101651.53;5135229;27;1905;-60
2021/06/26 05:46:55;;;;;;;;;;;;;;;20.03;66.27;101650.41;5134609;27;1949;-60
2021/06/26 05:49:20;;;;;;;;;;;;;;;20.05;66.31;101652.97;5135848;27;1881;-60
2021/06/26 05:51:45;;;;;;;;;;;;;;;20.04;65.74;101656.69;5134745;27;2246;-60
2021/06/26 05:54:10;;;;;;;;;;;;;;;20.05;66.38;101661.09;5135444;27;1934;-60
2021/06/26 05:56:35;;;;;;;;;;;;;;;20.04;66.28;101664.81;5122834;27;1969;-60
2021/06/26 05:59:00;;;;;;;;;;;;;;;20.02;67.32;101670.34;5121594;27;2220;-60
2021/06/26 06:01:26;;;;;;;;;;;;;;;20.05;66.46;101663.81;5126108;27;1943;-60
2021/06/26 06:03:52;;;;;;;;;;;;;;;20.06;66.16;101670.94;5125102;27;1593;-60
2021/06/26 06:06:17;;;;;;;;;;;;;;;20.09;68.09;101665.22;5119755;27;1702;-60
2021/06/26 06:08:43;;;;;;;;;;;;;;;20.06;68.43;101666.34;5123932;27;2251;-60
2021/06/26 06:11:08;;;;;;;;;;;;;;;20.08;68.18;101664.34;5121202;27;1877;-60
2021/06/26 06:13:33;;;;;;;;;;;;;;;20.06;67.79;101665.53;5119396;27;2123;-60
2021/06/26 06:15:58;;;;;;;;;;;;;;;20.06;67.70;101666.34;5116330;27;1913;-60
2021/06/26 06:18:23;;;;;;;;;;;;;;;20.06;68.20;101670.94;5124105;27;1836;-60
2021/06/26 06:20:48;;;;;;;;;;;;;;;20.05;68.03;101667.38;5116616;27;1949;-60
2021/06/26 06:23:13;;;;;;;;;;;;;;;20.08;67.47;101672.47;5120853;27;1573;-60
2021/06/26 06:25:38;;;;;;;;;;;;;;;20.09;68.01;101667.91;5117446;27;1978;-60
2021/06/26 06:28:03;;;;;;;;;;;;;;;20.08;67.17;101668.91;5116511;27;1620;-59
2021/06/26 06:30:30;;;;;;;;;;;;;;;20.09;68.41;101676.88;5116231;28;1614;-59
2021/06/26 06:32:55;;;;;;;;;;;;;;;20.15;67.74;101670.06;5117633;27;1831;-59
2021/06/26 06:35:20;;;;;;;;;;;;;;;20.14;68.18;101673.78;5116449;27;1976;-59
2021/06/26 06:37:45;;;;;;;;;;;;;;;20.13;68.97;101680.19;5130786;27;1883;-60
2021/06/26 06:40:13;;;;;;;;;;;;;;;20.13;67.81;101680.19;5115911;28;826;-59
2021/06/26 06:42:38;;;;;;;;;;;;;;;20.14;67.18;101672.91;5115754;28;1856;-60
2021/06/26 06:45:03;;;;;;;;;;;;;;;20.12;67.21;101675.75;5115912;27;1963;-60
2021/06/26 06:47:28;;;;;;;;;;;;;;;20.15;68.39;101686.31;5115718;28;1084;-60
2021/06/26 06:49:54;;;;;;;;;;;;;;;20.12;67.12;101686.59;5115437;28;960;-62
2021/06/26 06:52:19;;;;;;;;;;;;;;;20.15;67.00;101690.88;5103342;27;1936;-60
2021/06/26 06:54:46;;;;;;;;;;;;;;;20.15;67.95;101675.47;5135043;27;1889;-61
2021/06/26 06:57:12;;;;;;;;;;;;;;;20.17;67.96;101681.59;5136027;27;1104;-62
2021/06/26 06:59:37;;;;;;;;;;;;;;;20.18;68.11;101686.03;5116670;28;1724;-61
2021/06/26 07:02:02;;;;;;;;;;;;;;;20.17;67.36;101678.91;5130520;28;1699;-61
2021/06/26 07:04:27;;;;;;;;;;;;;;;20.19;67.59;101686.88;5115636;28;1923;-61
2021/06/26 07:06:53;;;;;;;;;;;;;;;20.19;68.73;101687.75;5115349;28;799;-61
2021/06/26 07:09:18;;;;;;;;;;;;;;;20.21;68.45;101687.59;5119380;28;1298;-61
2021/06/26 07:11:43;;;;;;;;;;;;;;;20.25;67.64;101692.56;5135084;28;1596;-61
2021/06/26 07:14:08;;;;;;;;;;;;;;;20.27;67.23;101685.16;5135380;28;845;-61
2021/06/26 07:16:33;;;;;;;;;;;;;;;20.36;66.41;101691.59;5135471;28;1917;-60
2021/06/26 07:18:58;;;;;;;;;;;;;;;20.42;65.88;101688.34;5135497;28;1059;-60
2021/06/26 07:21:23;;;;;;;;;;;;;;;20.43;66.07;101690.91;5134504;28;1349;-60
2021/06/26 07:23:48;;;;;;;;;;;;;;;20.48;65.59;101692.31;5134832;28;1282;-61
2021/06/26 07:26:13;;;;;;;;;;;;;;;20.53;65.39;101687.34;5135252;27;841;-61
2021/06/26 07:28:38;;;;;;;;;;;;;;;20.57;67.06;101688.78;5135272;28;1004;-60
2021/06/26 07:31:03;;;;;;;;;;;;;;;20.59;67.40;101690.34;5135566;28;949;-60
2021/06/26 07:33:28;;;;;;;;;;;;;;;20.61;67.54;101690.16;5134970;27;1676;-60
2021/06/26 07:35:53;;;;;;;;;;;;;;;20.62;67.66;101686.47;5135248;28;1964;-60
2021/06/26 07:38:19;;;;;;;;;;;;;;;20.63;67.30;101685.47;5135275;28;964;-61
2021/06/26 07:40:44;;;;;;;;;;;;;;;20.63;67.30;101691.75;5125493;27;1803;-60
2021/06/26 07:43:09;;;;;;;;;;;;;;;20.66;67.17;101701.44;5115421;28;920;-60
2021/06/26 07:45:34;;;;;;;;;;;;;;;20.68;67.29;101694.88;5115305;28;873;-60
2021/06/26 07:47:59;;;;;;;;;;;;;;;20.70;67.26;101690.19;5114999;28;1000;-60
2021/06/26 07:50:24;;;;;;;;;;;;;;;20.78;67.37;101690.28;5125844;27;1953;-61
2021/06/26 07:52:49;;;;;;;;;;;;;;;20.90;66.68;101693.72;5128449;28;1624;-61
2021/06/26 07:55:14;;;;;;;;;;;;;;;20.93;66.65;101685.28;5132443;28;1878;-61
2021/06/26 07:57:39;;;;;;;;;;;;;;;20.95;66.91;101696.00;5134739;27;1578;-61
2021/06/26 08:00:04;;;;;;;;;;;;;;;20.92;67.32;101693.56;5135020;27;1503;-61
2021/06/26 08:02:29;;;;;;;;;;;;;;;20.90;66.82;101693.72;5138618;27;1380;-60
2021/06/26 08:04:54;;;;;;;;;;;;;;;20.90;67.06;101687.44;5120324;27;1635;-60
2021/06/26 08:07:19;;;;;;;;;;;;;;;20.90;66.87;101691.00;5138830;27;1903;-60
2021/06/26 08:09:45;;;;;;;;;;;;;;;20.95;67.58;101691.44;5135651;27;1873;-60
2021/06/26 08:12:14;;;;;;;;;;;;;;;20.95;66.88;101687.88;5126804;27;1700;-61
2021/06/26 08:14:39;;;;;;;;;;;;;;;20.98;67.16;101688.41;5138577;27;1890;-61
2021/06/26 08:17:04;;;;;;;;;;;;;;;21.02;67.17;101688.97;5138182;27;1675;-61
2021/06/26 08:19:29;;;;;;;;;;;;;;;21.08;66.58;101686.53;5138351;27;1821;-60
2021/06/26 08:21:54;;;;;;;;;;;;;;;21.12;66.80;101682.53;5135085;27;1816;-60
2021/06/26 08:24:22;;;;;;;;;;;;;;;21.16;66.81;101685.78;5128980;27;1717;-61
2021/06/26 08:26:47;;;;;;;;;;;;;;;21.19;67.13;101687.34;5132006;27;1809;-60
2021/06/26 08:29:12;;;;;;;;;;;;;;;21.20;66.69;101689.09;5132523;27;1768;-61
